Time;durP1;ratioP1;P1;durP2;ratioP2;P2;SDS_P1;SDS_P2;PMS_P1;PMS_P2;Temp;Humidity;BMP_temperature;BMP_pressure;BME280_temperature;BME280_humidity;BME280_pressure;Samples;Min_cycle;Max_cycle;Signal;HPM_P1;HPM_P2
2022/07/29 00:01:16;;;;;;;7.70;2.85;;;;;;;20.48;100.00;99973.99;1763645;81;21046;-66
2022/07/29 00:03:48;;;;;;;8.75;3.65;;;;;;;20.53;100.00;99978.45;1764811;81;21856;-65
2022/07/29 00:06:15;;;;;;;6.20;3.33;;;;;;;20.52;100.00;99980.43;1768236;79;20943;-67
2022/07/29 00:08:43;;;;;;;7.37;3.47;;;;;;;20.45;100.00;99978.95;1739544;81;21475;-66
2022/07/29 00:11:13;;;;;;;8.53;3.17;;;;;;;20.37;100.00;99978.63;1764969;79;21031;-66
2022/07/29 00:13:41;;;;;;;9.73;3.37;;;;;;;20.37;100.00;99983.61;1764890;81;20931;-67
2022/07/29 00:16:12;;;;;;;6.70;3.80;;;;;;;20.38;100.00;99978.25;1764514;80;20987;-66
2022/07/29 00:18:39;;;;;;;7.72;3.00;;;;;;;20.42;100.00;99977.70;1764517;81;20903;-68
2022/07/29 00:21:09;;;;;;;10.58;3.17;;;;;;;20.43;100.00;99974.31;1737402;81;21057;-67
2022/07/29 00:23:37;;;;;;;9.50;3.30;;;;;;;20.35;100.00;99969.19;1764209;81;21001;-67
2022/07/29 00:26:04;;;;;;;6.30;3.30;;;;;;;20.35;100.00;99970.59;1764272;81;20978;-68
2022/07/29 00:28:32;;;;;;;6.35;3.75;;;;;;;20.46;100.00;99963.77;1765015;80;21079;-67
2022/07/29 00:31:00;;;;;;;10.78;3.55;;;;;;;20.50;100.00;99961.84;1764999;81;20859;-67
2022/07/29 00:33:28;;;;;;;5.37;3.17;;;;;;;20.55;100.00;99968.51;1764806;81;21003;-67
2022/07/29 00:35:56;;;;;;;9.95;3.50;;;;;;;20.52;100.00;99969.23;1768275;80;20944;-67
2022/07/29 00:38:22;;;;;;;5.47;3.05;;;;;;;20.42;100.00;99966.50;1756137;81;21506;-67
2022/07/29 00:40:54;;;;;;;6.00;2.67;;;;;;;20.48;100.00;99970.37;1737108;81;21831;-66
2022/07/29 00:43:23;;;;;;;9.65;3.02;;;;;;;20.47;100.00;99968.16;1753754;81;21037;-66
2022/07/29 00:45:57;;;;;;;4.87;2.55;;;;;;;20.38;100.00;99968.45;1734854;81;21003;-65
2022/07/29 00:48:29;;;;;;;3.75;2.85;;;;;;;20.24;100.00;99972.42;1764550;81;21004;-66
2022/07/29 00:50:58;;;;;;;5.12;3.40;;;;;;;20.21;100.00;99968.98;1764875;81;20923;-67
2022/07/29 00:53:25;;;;;;;7.22;2.98;;;;;;;20.11;100.00;99973.22;1771990;79;21745;-67
2022/07/29 00:55:59;;;;;;;4.67;3.22;;;;;;;20.12;100.00;99974.25;1759509;81;20932;-66
2022/07/29 00:58:29;;;;;;;7.50;2.87;;;;;;;20.12;100.00;99971.45;1771139;79;20871;-67
2022/07/29 01:01:00;;;;;;;6.08;3.40;;;;;;;20.08;100.00;99966.38;1739190;81;20891;-68
2022/07/29 01:03:29;;;;;;;5.25;3.35;;;;;;;20.13;100.00;99966.06;1770692;80;20980;-66
2022/07/29 01:06:03;;;;;;;6.90;2.95;;;;;;;20.15;100.00;99963.70;1771367;81;21159;-68
2022/07/29 01:08:35;;;;;;;6.67;3.42;;;;;;;20.18;100.00;99968.54;1767995;79;21031;-66
2022/07/29 01:11:02;;;;;;;6.28;3.55;;;;;;;20.21;100.00;99967.58;1770577;80;21493;-66
2022/07/29 01:13:33;;;;;;;8.73;3.58;;;;;;;20.23;100.00;99963.23;1769204;80;20928;-66
2022/07/29 01:16:06;;;;;;;6.97;3.40;;;;;;;20.06;100.00;99968.15;1771271;80;20984;-66
2022/07/29 01:18:35;;;;;;;4.80;3.58;;;;;;;20.03;100.00;99966.66;1770766;80;21936;-67
2022/07/29 01:21:29;;;;;;;5.20;3.55;;;;;;;19.97;100.00;99964.79;1771435;80;20889;-64
2022/07/29 01:24:27;;;;;;;6.70;3.08;;;;;;;19.99;100.00;99964.41;1720001;82;20859;-67
2022/07/29 01:27:22;;;;;;;6.55;3.40;;;;;;;19.95;100.00;99965.16;1738561;82;21030;-68
2022/07/29 01:29:58;;;;;;;6.12;3.62;;;;;;;19.91;100.00;99962.06;1707184;81;21050;-66
2022/07/29 01:32:33;;;;;;;7.33;3.72;;;;;;;19.99;100.00;99963.02;1738589;82;20927;-66
2022/07/29 01:35:19;;;;;;;9.20;4.42;;;;;;;20.02;100.00;99962.26;1769312;80;20963;-68
2022/07/29 01:38:01;;;;;;;5.45;3.90;;;;;;;20.08;100.00;99959.99;1775219;80;20981;-64
2022/07/29 01:40:39;;;;;;;8.65;3.67;;;;;;;20.05;100.00;99965.15;1719501;82;21010;-67
2022/07/29 01:43:13;;;;;;;9.18;3.72;;;;;;;19.96;100.00;99963.16;1753605;81;21065;-66
2022/07/29 01:46:00;;;;;;;8.85;3.55;;;;;;;19.95;100.00;99960.16;1751466;82;21099;-67
2022/07/29 01:48:35;;;;;;;8.68;3.50;;;;;;;19.98;100.00;99962.20;1771002;80;20981;-67
2022/07/29 01:51:26;;;;;;;6.85;3.92;;;;;;;20.07;100.00;99961.97;1762909;79;20940;-66
2022/07/29 01:54:16;;;;;;;6.00;3.37;;;;;;;20.03;100.00;99962.47;1771946;80;21023;-67
2022/07/29 01:56:44;;;;;;;6.50;3.62;;;;;;;19.97;100.00;99963.39;1772540;79;21004;-68
2022/07/29 01:59:12;;;;;;;4.53;3.05;;;;;;;19.92;100.00;99960.91;1770212;81;21516;-67
2022/07/29 02:01:42;;;;;;;5.78;3.52;;;;;;;19.82;100.00;99958.16;1767921;80;21142;-68
2022/07/29 02:04:11;;;;;;;9.18;3.05;;;;;;;19.93;100.00;99963.33;1717329;80;20960;-71
2022/07/29 02:06:43;;;;;;;6.37;3.55;;;;;;;19.81;100.00;99964.91;1759503;81;20951;-70
2022/07/29 02:09:12;;;;;;;5.22;2.98;;;;;;;19.80;100.00;99961.32;1781757;79;20848;-68
2022/07/29 02:11:38;;;;;;;5.62;3.05;;;;;;;19.71;100.00;99969.13;1759209;81;21226;-68
2022/07/29 02:14:11;;;;;;;13.65;4.15;;;;;;;19.74;100.00;99968.38;1758310;81;21025;-69
2022/07/29 02:16:38;;;;;;;10.68;4.47;;;;;;;19.74;100.00;99971.17;1759573;81;20954;-66
2022/07/29 02:19:08;;;;;;;19.65;4.25;;;;;;;19.61;100.00;99977.55;1740771;81;21450;-66
2022/07/29 02:21:36;;;;;;;7.55;3.52;;;;;;;19.61;100.00;99971.95;1739654;81;21056;-67
2022/07/29 02:24:06;;;;;;;7.65;3.70;;;;;;;19.57;100.00;99973.28;1765015;81;21881;-69
2022/07/29 02:26:35;;;;;;;6.65;3.52;;;;;;;19.56;100.00;99973.08;1765074;81;20963;-69
2022/07/29 02:29:03;;;;;;;8.25;2.90;;;;;;;19.52;100.00;99972.77;1767834;80;20896;-67
2022/07/29 02:31:34;;;;;;;8.13;3.87;;;;;;;19.44;100.00;99976.84;1746199;81;20978;-67
2022/07/29 02:34:04;;;;;;;14.85;3.70;;;;;;;19.36;100.00;99980.69;1744244;82;21480;-67
2022/07/29 02:36:33;;;;;;;6.58;3.42;;;;;;;19.36;100.00;99982.08;1713673;83;21271;-69
2022/07/29 02:39:04;;;;;;;4.40;2.80;;;;;;;19.33;100.00;99984.19;1753565;81;20872;-68
2022/07/29 02:41:39;;;;;;;7.53;3.62;;;;;;;19.33;100.00;99982.80;1748655;80;21539;-66
2022/07/29 02:44:16;;;;;;;7.85;3.02;;;;;;;19.30;100.00;99984.94;1757435;81;20972;-67
2022/07/29 02:46:56;;;;;;;3.20;2.65;;;;;;;19.34;100.00;99992.81;1756647;80;21472;-67
2022/07/29 02:49:38;;;;;;;5.70;3.12;;;;;;;19.40;100.00;99988.53;1759094;81;21014;-67
2022/07/29 02:52:30;;;;;;;6.35;3.60;;;;;;;19.44;100.00;99985.81;1757555;81;20944;-68
2022/07/29 02:55:05;;;;;;;8.08;3.15;;;;;;;19.42;100.00;99988.16;1739012;81;21023;-66
2022/07/29 02:57:46;;;;;;;7.62;3.80;;;;;;;19.46;100.00;99982.06;1767505;80;21019;-66
2022/07/29 03:00:14;;;;;;;9.78;3.40;;;;;;;19.40;100.00;99991.33;1755351;81;20923;-67
2022/07/29 03:02:47;;;;;;;6.75;3.37;;;;;;;19.39;100.00;99993.91;1742720;81;21913;-67
2022/07/29 03:05:19;;;;;;;19.07;4.47;;;;;;;19.37;100.00;99994.04;1758055;81;20926;-67
2022/07/29 03:07:57;;;;;;;13.58;3.77;;;;;;;19.44;100.00;99991.39;1737412;82;20956;-67
2022/07/29 03:10:27;;;;;;;15.95;4.78;;;;;;;19.43;100.00;99994.77;1730297;82;20970;-67
2022/07/29 03:12:57;;;;;;;12.05;3.95;;;;;;;19.41;100.00;99994.36;1749091;80;20984;-69
2022/07/29 03:15:29;;;;;;;23.67;6.08;;;;;;;19.50;100.00;99993.31;1728845;82;21327;-67
2022/07/29 03:17:56;;;;;;;16.93;5.50;;;;;;;19.52;100.00;99993.73;1743339;80;21119;-68
2022/07/29 03:20:28;;;;;;;25.92;5.40;;;;;;;19.61;100.00;99998.50;1743768;81;20947;-69
2022/07/29 03:22:54;;;;;;;20.68;4.75;;;;;;;19.52;100.00;99998.73;1757323;81;21519;-69
2022/07/29 03:25:20;;;;;;;16.37;5.45;;;;;;;19.58;100.00;99993.05;1750660;82;21558;-67
2022/07/29 03:27:48;;;;;;;22.10;5.80;;;;;;;;;;1768434;80;21247;-66
2022/07/29 03:30:20;;;;;;;30.95;6.10;;;;;;;19.64;100.00;99991.35;1777368;80;20963;-70
2022/07/29 03:32:43;;;;;;;8.93;4.05;;;;;;;19.74;100.00;99995.55;1731790;80;21459;-66
2022/07/29 03:35:16;;;;;;;7.30;3.33;;;;;;;19.74;100.00;99996.33;1778512;80;20991;-66
2022/07/29 03:37:44;;;;;;;5.85;3.05;;;;;;;19.75;100.00;99994.36;1775713;80;20955;-66
2022/07/29 03:40:16;;;;;;;5.03;3.50;;;;;;;19.82;100.00;100002.87;1759377;81;21621;-70
2022/07/29 03:42:44;;;;;;;7.03;3.35;;;;;;;19.82;100.00;100001.48;1783190;79;20966;-67
2022/07/29 03:45:17;;;;;;;9.68;3.80;;;;;;;19.85;100.00;99999.33;1754342;81;21165;-67
2022/07/29 03:47:51;;;;;;;6.72;3.30;;;;;;;19.92;100.00;100005.64;1762748;80;21015;-66
2022/07/29 03:50:19;;;;;;;5.58;3.30;;;;;;;20.13;100.00;99996.83;1756313;80;21078;-68
2022/07/29 03:52:48;;;;;;;8.30;4.25;;;;;;;20.21;100.00;100008.95;1744882;82;21018;-67
2022/07/29 03:55:17;;;;;;;6.70;3.55;;;;;;;20.26;100.00;100005.84;1771145;79;20919;-67
2022/07/29 03:57:47;;;;;;;9.43;3.65;;;;;;;20.28;100.00;100009.66;1759784;81;21018;-66
2022/07/29 04:00:17;;;;;;;6.97;3.67;;;;;;;20.34;100.00;100008.15;1759092;81;21046;-67
2022/07/29 04:02:48;;;;;;;7.60;3.72;;;;;;;20.31;100.00;100009.72;1751308;81;21070;-66
2022/07/29 04:05:15;;;;;;;8.05;3.58;;;;;;;20.35;100.00;100008.97;1734445;81;21200;-67
2022/07/29 04:07:47;;;;;;;6.40;3.67;;;;;;;20.39;100.00;100011.21;1759118;81;21036;-67
2022/07/29 04:10:18;;;;;;;7.15;3.15;;;;;;;20.47;100.00;100000.34;1757482;80;21125;-66
2022/07/29 04:12:45;;;;;;;8.03;3.10;;;;;;;20.80;100.00;99996.62;1774344;80;21007;-67
2022/07/29 04:15:14;;;;;;;4.45;2.95;;;;;;;20.84;100.00;99997.48;1758497;81;20915;-67
2022/07/29 04:17:42;;;;;;;6.95;2.17;;;;;;;20.95;100.00;99993.44;1757428;80;21381;-67
2022/07/29 04:20:13;;;;;;;3.10;1.67;;;;;;;21.11;100.00;99993.25;1756707;81;21034;-68
2022/07/29 04:22:43;;;;;;;5.03;1.47;;;;;;;21.24;100.00;99990.21;1756432;81;21023;-67
2022/07/29 04:25:13;;;;;;;3.47;1.90;;;;;;;21.45;100.00;99984.03;1759376;81;20963;-66
2022/07/29 04:27:59;;;;;;;3.17;1.82;;;;;;;21.60;100.00;99990.59;1757730;80;21027;-67
2022/07/29 04:30:12;;;;;;;3.72;1.60;;;;;;;21.74;100.00;99994.14;1755847;81;21768;-66
2022/07/29 04:32:39;;;;;;;2.30;1.42;;;;;;;21.92;100.00;99992.11;1759706;81;20982;-67
2022/07/29 04:35:10;;;;;;;3.12;1.20;;;;;;;22.16;100.00;99996.13;1759294;81;20872;-67
2022/07/29 04:37:39;;;;;;;2.90;1.32;;;;;;;22.32;100.00;99981.80;1756346;80;21109;-67
2022/07/29 04:40:10;;;;;;;3.22;1.32;;;;;;;22.47;100.00;99984.92;1728650;83;20864;-68
2022/07/29 04:42:43;;;;;;;5.65;1.60;;;;;;;22.53;100.00;99985.37;1775940;80;21014;-66
2022/07/29 04:45:11;;;;;;;11.05;1.82;;;;;;;22.61;100.00;99976.41;1773817;80;21030;-67
2022/07/29 04:47:38;;;;;;;7.03;1.90;;;;;;;22.67;100.00;99985.28;1778185;80;21114;-64
2022/07/29 04:50:08;;;;;;;3.50;1.57;;;;;;;22.76;100.00;99981.50;1777169;80;20979;-65
2022/07/29 04:52:37;;;;;;;6.05;1.80;;;;;;;22.84;100.00;99984.55;1769004;80;21470;-68
2022/07/29 04:55:06;;;;;;;3.37;1.45;;;;;;;22.96;100.00;99984.02;1756349;80;21015;-66
2022/07/29 04:57:33;;;;;;;5.03;1.72;;;;;;;23.04;100.00;99986.25;1758234;81;22355;-65
2022/07/29 05:00:01;;;;;;;5.40;1.82;;;;;;;23.10;100.00;99981.27;1761351;80;21431;-68
2022/07/29 05:02:32;;;;;;;3.42;1.82;;;;;;;23.20;100.00;99977.50;1775371;79;21088;-65
2022/07/29 05:05:03;;;;;;;6.92;1.62;;;;;;;23.24;100.00;99986.73;1776656;79;21483;-66
2022/07/29 05:07:32;;;;;;;2.77;1.57;;;;;;;23.28;100.00;99987.55;1779421;79;21122;-67
2022/07/29 05:09:59;;;;;;;3.92;1.70;;;;;;;23.34;100.00;99990.17;1764154;79;21003;-69
2022/07/29 05:12:27;;;;;;;6.47;2.40;;;;;;;23.49;100.00;99986.02;1755444;80;21067;-66
2022/07/29 05:14:55;;;;;;;7.90;2.50;;;;;;;23.55;100.00;99983.03;1738277;82;21053;-67
2022/07/29 05:17:25;;;;;;;4.92;1.80;;;;;;;23.63;100.00;99981.65;1755077;81;21521;-68
2022/07/29 05:19:53;;;;;;;5.87;2.10;;;;;;;23.73;100.00;99983.64;1737248;81;21186;-66
2022/07/29 05:22:21;;;;;;;6.62;1.92;;;;;;;23.78;100.00;99983.25;1749279;81;21026;-67
2022/07/29 05:24:51;;;;;;;7.05;2.10;;;;;;;23.83;100.00;99987.08;1748662;81;21015;-66
2022/07/29 05:27:20;;;;;;;16.00;2.55;;;;;;;23.91;100.00;99990.72;1742151;80;21043;-65
2022/07/29 05:29:48;;;;;;;7.87;1.75;;;;;;;23.98;100.00;99994.73;1744116;80;21042;-68
2022/07/29 05:32:14;;;;;;;9.45;2.55;;;;;;;24.01;100.00;99989.11;1773942;80;21440;-64
2022/07/29 05:34:42;;;;;;;7.87;2.52;;;;;;;24.05;100.00;99984.89;1760461;81;21079;-66
2022/07/29 05:37:10;;;;;;;6.47;2.62;;;;;;;24.10;100.00;99985.08;1759923;80;21082;-65
2022/07/29 05:39:38;;;;;;;8.95;2.10;;;;;;;24.15;100.00;99983.27;1758263;80;21542;-66
2022/07/29 05:42:10;;;;;;;11.93;1.82;;;;;;;24.24;100.00;99986.50;1745510;81;21054;-65
2022/07/29 05:44:39;;;;;;;5.62;1.75;;;;;;;24.31;100.00;99983.69;1744373;80;20981;-66
2022/07/29 05:47:07;;;;;;;8.15;2.40;;;;;;;24.36;99.24;99983.87;1775744;80;21039;-66
2022/07/29 05:49:33;;;;;;;7.55;1.87;;;;;;;24.41;98.54;99984.87;1778439;79;21002;-66
2022/07/29 05:52:02;;;;;;;6.70;1.65;;;;;;;24.44;98.88;99988.91;1775883;79;21525;-66
2022/07/29 05:54:30;;;;;;;8.35;1.65;;;;;;;24.58;98.46;99994.30;1769272;81;21004;-67
2022/07/29 05:56:58;;;;;;;10.68;2.05;;;;;;;24.72;98.17;99986.44;1761253;79;21098;-64
2022/07/29 05:59:27;;;;;;;9.20;2.47;;;;;;;24.74;96.70;99984.80;1767761;81;21642;-67
2022/07/29 06:01:53;;;;;;;11.08;2.37;;;;;;;24.84;94.59;99986.59;1746925;80;21507;-66
2022/07/29 06:04:23;;;;;;;11.53;2.17;;;;;;;24.89;94.32;99988.38;1745546;81;20998;-65
2022/07/29 06:06:53;;;;;;;6.03;1.82;;;;;;;24.97;93.71;99983.56;1699135;82;21530;-67
2022/07/29 06:09:22;;;;;;;16.45;2.25;;;;;;;25.03;93.08;99977.69;1698727;84;20996;-66
2022/07/29 06:11:49;;;;;;;8.75;2.12;;;;;;;25.12;94.47;99983.48;1692493;82;21050;-68
2022/07/29 06:14:17;;;;;;;11.63;2.05;;;;;;;25.16;94.04;99982.25;1698328;83;21080;-66
2022/07/29 06:16:44;;;;;;;9.60;2.30;;;;;;;25.20;93.29;99983.64;1695096;82;21011;-67
2022/07/29 06:19:13;;;;;;;5.67;2.02;;;;;;;25.27;93.20;99980.80;1699469;84;21014;-66
2022/07/29 06:21:43;;;;;;;12.13;2.50;;;;;;;25.30;93.27;99989.66;1756740;81;21139;-66
2022/07/29 06:24:13;;;;;;;16.87;2.85;;;;;;;25.38;91.82;99988.39;1729574;81;21002;-67
2022/07/29 06:26:42;;;;;;;13.10;2.22;;;;;;;25.44;91.33;99991.57;1685253;83;21020;-66
2022/07/29 06:29:10;;;;;;;6.47;1.62;;;;;;;25.54;92.24;99990.70;1690409;84;21034;-66
2022/07/29 06:31:38;;;;;;;8.95;1.67;;;;;;;25.62;93.40;99992.26;1703804;84;20999;-66
2022/07/29 06:34:06;;;;;;;8.28;2.17;;;;;;;25.64;90.05;99991.91;1751000;80;21221;-73
2022/07/29 06:36:37;;;;;;;7.00;2.22;;;;;;;25.71;90.30;99994.66;1745668;80;21038;-67
2022/07/29 06:39:07;;;;;;;3.65;1.57;;;;;;;25.69;90.80;99992.84;1745579;80;21070;-68
2022/07/29 06:41:35;;;;;;;4.35;1.50;;;;;;;25.80;90.25;100001.84;1754755;81;21071;-66
2022/07/29 06:44:05;;;;;;;7.75;2.08;;;;;;;25.91;88.91;99998.36;1748560;80;21527;-65
2022/07/29 06:46:33;;;;;;;4.70;1.60;;;;;;;25.94;87.38;99993.89;1738854;81;21040;-66
2022/07/29 06:49:01;;;;;;;12.43;1.98;;;;;;;26.01;87.39;99993.84;1745543;81;21051;-66
2022/07/29 06:51:30;;;;;;;11.53;2.05;;;;;;;26.08;87.48;99992.38;1745284;81;21054;-67
2022/07/29 06:53:58;;;;;;;4.92;1.72;;;;;;;26.12;86.44;99986.08;1740874;81;21019;-66
2022/07/29 06:56:25;;;;;;;6.87;1.90;;;;;;;26.18;87.42;99987.05;1740242;81;21117;-65
2022/07/29 06:58:53;;;;;;;10.08;1.55;;;;;;;26.27;86.76;99984.55;1736714;81;21837;-64
2022/07/29 07:01:30;;;;;;;6.42;1.80;;;;;;;26.27;86.48;99983.73;1755256;81;21097;-65
2022/07/29 07:04:00;;;;;;;5.60;1.50;;;;;;;26.38;85.93;99978.81;1745570;81;21003;-66
2022/07/29 07:06:27;;;;;;;5.10;1.52;;;;;;;26.52;85.92;99985.53;1740469;81;21575;-65
2022/07/29 07:08:53;;;;;;;7.55;1.65;;;;;;;26.66;84.78;99992.46;1743073;81;21008;-66
2022/07/29 07:11:24;;;;;;;10.05;1.57;;;;;;;26.71;82.98;99987.77;1741373;80;21321;-67
2022/07/29 07:13:50;;;;;;;9.05;2.00;;;;;;;26.72;82.83;99990.77;1747031;80;21050;-64
2022/07/29 07:16:19;;;;;;;4.70;1.80;;;;;;;26.71;83.05;99992.00;1756339;81;21020;-65
2022/07/29 07:18:50;;;;;;;6.55;1.95;;;;;;;26.82;81.61;99992.46;1749032;80;21074;-68
2022/07/29 07:21:20;;;;;;;9.60;1.67;;;;;;;26.85;81.48;99993.84;1749899;81;21090;-66
2022/07/29 07:23:51;;;;;;;3.52;1.70;;;;;;;26.96;80.50;99995.73;1753529;81;21006;-65
2022/07/29 07:26:22;;;;;;;3.80;1.65;;;;;;;26.85;81.18;100004.36;1746949;81;21015;-67
2022/07/29 07:28:51;;;;;;;7.58;1.90;;;;;;;26.93;82.14;100003.05;1743843;81;21000;-65
2022/07/29 07:31:22;;;;;;;7.08;2.80;;;;;;;26.98;81.12;99999.76;1759915;80;20983;-66
2022/07/29 07:33:51;;;;;;;6.70;1.80;;;;;;;27.07;82.36;100001.30;1752868;81;21538;-66
2022/07/29 07:36:18;;;;;;;10.00;2.72;;;;;;;27.19;82.73;99995.06;1756864;81;21563;-66
2022/07/29 07:38:48;;;;;;;7.55;1.87;;;;;;;27.28;84.06;99999.42;1767582;79;20959;-66
2022/07/29 07:41:22;;;;;;;2.98;1.57;;;;;;;27.37;84.96;99996.86;1760085;81;21019;-66
2022/07/29 07:43:56;;;;;;;6.70;1.50;;;;;;;27.46;83.73;99999.17;1758284;81;21003;-66
2022/07/29 07:46:22;;;;;;;7.97;2.07;;;;;;;27.53;82.23;100002.51;1758819;81;21502;-66
2022/07/29 07:48:52;;;;;;;5.85;1.82;;;;;;;27.58;82.67;100002.03;1756764;81;21514;-66
2022/07/29 07:51:26;;;;;;;8.35;2.08;;;;;;;27.64;82.70;100003.14;1757998;81;20951;-67
2022/07/29 07:53:53;;;;;;;;;;;;;;;27.77;82.17;100005.42;1759005;80;21014;-66
2022/07/29 07:56:21;;;;;;;6.95;1.85;;;;;;;27.86;79.87;100009.91;1764374;80;20188;-67
2022/07/29 07:58:52;;;;;;;5.03;2.08;;;;;;;27.94;79.08;100007.15;1773701;80;20999;-66
2022/07/29 08:01:30;;;;;;;4.78;1.30;;;;;;;28.04;81.46;100009.64;1766130;80;20996;-65
2022/07/29 08:03:57;;;;;;;6.37;2.60;;;;;;;28.00;77.43;100012.33;1764751;80;21047;-67
2022/07/29 08:06:28;;;;;;;2.62;1.40;;;;;;;28.05;78.92;100015.48;1729239;83;21007;-65
2022/07/29 08:09:06;;;;;;;3.42;1.80;;;;;;;28.11;77.96;100014.38;1729245;82;21106;-67
2022/07/29 08:11:35;;;;;;;5.80;2.17;;;;;;;28.16;76.18;100015.31;1758409;80;21092;-65
2022/07/29 08:14:08;;;;;;;4.25;2.17;;;;;;;28.22;73.89;100016.23;1761972;80;21038;-65
2022/07/29 08:16:38;;;;;;;4.08;2.00;;;;;;;28.16;73.82;100016.73;1765203;80;21066;-65
2022/07/29 08:19:08;;;;;;;5.72;1.65;;;;;;;28.19;73.58;100011.61;1755552;80;21007;-65
2022/07/29 08:21:40;;;;;;;6.60;1.87;;;;;;;28.23;72.46;100013.58;1762342;80;21094;-67
2022/07/29 08:27:00;;;;;;;4.53;1.77;;;;;;;28.38;74.92;100007.88;1769228;79;21519;-66
2022/07/29 08:29:28;;;;;;;6.33;1.52;;;;;;;28.49;72.52;100008.30;1769679;80;21005;-65
2022/07/29 08:31:55;;;;;;;1.87;1.52;;;;;;;28.57;71.25;100004.70;1765928;81;20995;-65
2022/07/29 08:34:26;;;;;;;2.47;1.60;;;;;;;28.61;73.81;100009.06;1740969;80;21044;-64
2022/07/29 08:36:55;;;;;;;4.33;1.80;;;;;;;28.77;73.22;100004.72;1769461;80;21082;-66
2022/07/29 08:39:25;;;;;;;4.35;1.87;;;;;;;28.93;74.02;99998.34;1747973;80;20960;-66
2022/07/29 08:41:54;;;;;;;3.98;1.95;;;;;;;29.09;76.25;100003.30;1727297;81;21490;-68
2022/07/29 08:44:22;;;;;;;3.17;2.08;;;;;;;29.18;74.10;100006.16;1736850;81;21602;-67
2022/07/29 08:46:52;;;;;;;5.83;1.67;;;;;;;29.26;73.52;100005.56;1776300;79;20967;-66
2022/07/29 08:49:28;;;;;;;5.33;1.90;;;;;;;29.40;73.36;100000.20;1753365;80;21027;-66
2022/07/29 08:51:56;;;;;;;3.22;1.50;;;;;;;29.43;70.70;99999.15;1756889;80;22326;-65
2022/07/29 08:54:23;;;;;;;3.80;1.57;;;;;;;29.37;72.46;99999.67;1753586;80;21006;-71
2022/07/29 08:57:08;;;;;;;3.58;1.60;;;;;;;29.45;72.65;100005.16;1750822;80;21067;-66
2022/07/29 08:59:44;;;;;;;7.10;1.80;;;;;;;29.38;74.71;100001.86;1762749;80;21109;-64
2022/07/29 09:02:20;;;;;;;12.33;2.08;;;;;;;29.41;76.38;100005.27;1756258;80;21539;-64
2022/07/29 09:04:51;;;;;;;3.30;1.37;;;;;;;29.36;72.95;100004.37;1767426;80;21050;-67
2022/07/29 09:07:19;;;;;;;8.20;2.10;;;;;;;29.33;74.59;100003.19;1766843;80;20979;-74
2022/07/29 09:09:48;;;;;;;3.22;1.75;;;;;;;29.23;69.16;100002.19;1762859;80;20983;-65
2022/07/29 09:12:17;;;;;;;3.92;1.75;;;;;;;29.29;75.23;99999.65;1762563;80;21564;-70
2022/07/29 09:14:48;;;;;;;3.77;1.87;;;;;;;29.34;69.60;99996.30;1764341;80;21593;-67
2022/07/29 09:17:17;;;;;;;4.80;1.60;;;;;;;29.33;72.50;100008.86;1761344;80;20997;-64
2022/07/29 09:19:52;;;;;;;6.55;1.62;;;;;;;29.44;73.41;100000.73;1767335;80;20995;-68
2022/07/29 09:22:27;;;;;;;6.90;1.87;;;;;;;29.58;75.49;100002.45;1761782;80;20952;-66
2022/07/29 09:24:54;;;;;;;5.47;2.02;;;;;;;29.62;72.79;100005.41;1759435;80;21077;-70
2022/07/29 09:27:26;;;;;;;5.03;2.30;;;;;;;29.63;74.08;100003.37;1736982;81;21109;-64
2022/07/29 09:30:14;;;;;;;3.52;1.90;;;;;;;29.66;71.88;100001.69;1761227;80;21047;-68
2022/07/29 09:33:01;;;;;;;4.22;1.70;;;;;;;29.69;71.80;100003.02;1760372;80;20935;-67
2022/07/29 09:35:27;;;;;;;5.22;1.98;;;;;;;29.70;68.62;99997.52;1762465;80;21039;-67
2022/07/29 09:37:55;;;;;;;5.78;1.98;;;;;;;29.78;70.46;99995.32;1781798;80;21035;-65
2022/07/29 09:40:27;;;;;;;5.67;1.95;;;;;;;29.84;73.38;99999.83;1773378;80;21019;-65
2022/07/29 09:42:57;;;;;;;7.65;2.00;;;;;;;29.72;73.03;100004.19;1762305;80;21759;-64
2022/07/29 09:45:33;;;;;;;5.85;2.00;;;;;;;29.51;70.51;100004.84;1763758;80;21510;-67
2022/07/29 09:48:17;;;;;;;2.98;1.45;;;;;;;29.39;71.94;100004.27;1763769;80;21448;-65
2022/07/29 09:50:49;;;;;;;4.45;2.10;;;;;;;29.36;75.22;100000.11;1762586;80;21012;-65
2022/07/29 09:53:39;;;;;;;6.03;2.00;;;;;;;29.47;76.70;100006.94;1762320;80;21015;-71
2022/07/29 09:56:06;;;;;;;3.98;1.77;;;;;;;29.53;71.09;100003.14;1766706;80;21675;-64
2022/07/29 09:58:35;;;;;;;5.83;1.90;;;;;;;29.51;70.29;100004.84;1761923;80;21027;-67
2022/07/29 10:01:04;;;;;;;3.17;2.00;;;;;;;29.55;71.96;100001.28;1765535;80;21011;-65
2022/07/29 10:03:35;;;;;;;7.33;1.90;;;;;;;29.59;69.15;99997.75;1771798;80;21076;-66
2022/07/29 10:06:13;;;;;;;5.83;2.22;;;;;;;29.71;70.67;99995.48;1727929;80;21000;-66
2022/07/29 10:08:46;;;;;;;8.43;1.92;;;;;;;29.89;70.93;99987.33;1778508;80;21033;-67
2022/07/29 10:11:17;;;;;;;3.60;1.65;;;;;;;30.03;73.16;99986.79;1767781;80;21546;-66
2022/07/29 10:13:48;;;;;;;4.90;1.65;;;;;;;30.14;71.34;99982.27;1769948;79;21525;-67
2022/07/29 10:16:18;;;;;;;6.85;1.95;;;;;;;30.24;67.78;99981.22;1770687;80;21002;-67
2022/07/29 10:18:46;;;;;;;6.12;2.30;;;;;;;30.36;70.42;99980.30;1776526;80;21002;-66
2022/07/29 10:21:17;;;;;;;4.85;1.98;;;;;;;30.41;69.53;99974.08;1773143;79;21031;-67
2022/07/29 10:23:47;;;;;;;4.85;2.10;;;;;;;30.47;71.12;99975.12;1727097;81;20984;-67
2022/07/29 10:26:14;;;;;;;4.05;2.40;;;;;;;30.57;73.11;99977.48;1760314;81;21023;-65
2022/07/29 10:28:41;;;;;;;3.30;1.72;;;;;;;30.58;68.01;99980.52;1709082;81;20979;-71
2022/07/29 10:31:12;;;;;;;7.12;2.10;;;;;;;30.56;67.36;99971.63;1753993;81;21027;-67
2022/07/29 10:33:58;;;;;;;7.40;1.70;;;;;;;30.42;64.98;99972.05;1776122;80;21234;-69
2022/07/29 10:36:47;;;;;;;10.63;1.90;;;;;;;30.33;65.31;99979.14;1779207;80;21467;-68
2022/07/29 10:39:30;;;;;;;4.58;1.95;;;;;;;30.20;60.16;99973.98;1762767;80;21015;-65
2022/07/29 10:42:17;;;;;;;5.25;2.35;;;;;;;30.05;66.59;99974.38;1776189;79;21039;-64
2022/07/29 10:44:48;;;;;;;7.92;1.80;;;;;;;30.22;66.22;99968.08;1775206;80;36325;-65
2022/07/29 10:47:23;;;;;;;4.62;1.80;;;;;;;30.42;66.14;99964.94;1764526;80;21140;-68
2022/07/29 10:50:05;;;;;;;5.92;1.95;;;;;;;30.64;68.39;99965.76;1759746;80;21113;-64
2022/07/29 10:52:56;;;;;;;2.22;1.50;;;;;;;30.81;60.68;99963.03;1767579;80;21065;-66
2022/07/29 10:55:39;;;;;;;5.28;2.02;;;;;;;30.70;61.12;99966.80;1743543;80;21073;-68
2022/07/29 10:58:14;;;;;;;3.92;1.80;;;;;;;30.65;64.35;99962.46;1778625;80;21488;-68
2022/07/29 11:00:43;;;;;;;6.67;2.58;;;;;;;30.62;62.07;99961.95;1778092;80;21062;-66
2022/07/29 11:03:51;;;;;;;4.17;1.72;;;;;;;30.46;62.75;99962.78;1774102;80;21018;-66
2022/07/29 11:06:17;;;;;;;4.40;1.80;;;;;;;30.40;67.31;99958.26;1757582;80;20996;-69
2022/07/29 11:08:45;;;;;;;6.28;2.00;;;;;;;30.58;65.15;99964.88;1739072;81;21050;-65
2022/07/29 11:11:27;;;;;;;4.40;1.80;;;;;;;30.71;62.76;99957.81;1753324;80;21509;-65
2022/07/29 11:13:56;;;;;;;3.15;1.90;;;;;;;30.78;66.00;99961.07;1773394;80;21783;-67
2022/07/29 11:16:24;;;;;;;6.50;1.75;;;;;;;30.89;64.72;99957.15;1772046;80;21151;-68
2022/07/29 11:19:15;;;;;;;7.58;2.08;;;;;;;30.98;63.41;99962.98;1771133;80;20991;-66
2022/07/29 11:21:47;;;;;;;3.65;1.62;;;;;;;31.02;61.11;99959.39;1776313;80;20983;-67
2022/07/29 11:24:18;;;;;;;3.62;1.77;;;;;;;31.18;62.61;99959.13;1774985;80;21003;-66
2022/07/29 11:26:45;;;;;;;5.55;2.00;;;;;;;31.35;65.43;99962.67;1774372;80;21157;-64
2022/07/29 11:29:24;;;;;;;5.47;2.05;;;;;;;31.50;66.12;99954.50;1757433;80;21090;-69
2022/07/29 11:31:55;;;;;;;5.87;2.27;;;;;;;31.56;61.08;99951.25;1755874;81;21558;-70
2022/07/29 11:34:32;;;;;;;6.75;2.60;;;;;;;31.51;57.94;99944.70;1736184;81;21558;-66
2022/07/29 11:37:13;;;;;;;6.72;2.20;;;;;;;31.46;56.00;99939.58;1760175;81;21010;-71
2022/07/29 11:39:46;;;;;;;10.20;2.33;;;;;;;31.17;55.60;99939.06;1762553;81;21518;-67
2022/07/29 11:42:26;;;;;;;5.55;2.08;;;;;;;30.98;62.67;99934.55;1758666;81;21023;-67
2022/07/29 11:45:16;;;;;;;23.87;3.12;;;;;;;30.96;62.39;99938.46;1755518;81;21097;-68
2022/07/29 11:47:53;;;;;;;5.28;2.10;;;;;;;30.91;64.94;99935.56;1759086;80;21527;-66
2022/07/29 11:50:36;;;;;;;4.62;1.82;;;;;;;31.02;68.18;99934.41;1755159;80;21038;-65